Terminal Aerodrome Forecast
Issued by NWS Medford, OR

Home | Current Version | Previous Version | Text Only | Print | Product List | Glossary On
Versions: 1 2 3 4 5 6 7 8 9 10 11 12 13 14 15 16 17 18 19 20 21
190
FTUS46 KMFR 231150
TAFMFR
TAF
KMFR 231150Z 2312/2412 07006KT P6SM VCSH SCT035 BKN070 OVC090
      WS010/23030KT
     FM231700 29005KT P6SM -RA SCT020 OVC035
     FM240400 32008KT P6SM -RA SCT020 OVC030
     FM240600 18009KT P6SM -RA OVC015
     FM240900 16007KT P6SM OVC007=

USA.gov is the U.S. government's official web portal to all federal, state and local government web resources and services.